createdAt,value
2022-11-04T00:00:18.881Z,11.30
2022-11-04T00:02:47.538Z,14.82
2022-11-04T00:05:17.653Z,9.07
2022-11-04T00:08:03.059Z,14.35
2022-11-04T00:10:45.471Z,14.18
2022-11-04T00:13:14.089Z,15.88
2022-11-04T00:16:00.440Z,14.43
2022-11-04T00:18:29.359Z,14.80
2022-11-04T00:21:17.168Z,12.27
2022-11-04T00:24:05.673Z,15.48
2022-11-04T00:26:51.728Z,13.73
2022-11-04T00:29:20.326Z,12.95
2022-11-04T00:32:06.256Z,15.15
2022-11-04T00:34:34.820Z,14.63
2022-11-04T00:37:05.009Z,11.02
2022-11-04T00:39:33.764Z,11.93
2022-11-04T00:42:02.495Z,15.05
2022-11-04T00:44:31.123Z,15.93
2022-11-04T00:46:59.766Z,12.45
2022-11-04T00:49:28.012Z,14.70
2022-11-04T00:51:56.749Z,13.48
2022-11-04T00:54:26.908Z,13.00
2022-11-04T00:56:55.699Z,13.40
2022-11-04T00:59:24.737Z,12.90
2022-11-04T01:01:53.188Z,14.18
2022-11-04T01:04:21.954Z,10.88
2022-11-04T01:06:50.957Z,14.80
2022-11-04T01:09:19.751Z,13.68
2022-11-04T01:11:49.916Z,13.93
2022-11-04T01:16:47.024Z,14.95
2022-11-04T01:19:15.632Z,16.20
2022-11-04T01:21:44.336Z,15.15
2022-11-04T01:24:12.963Z,15.18
2022-11-04T01:26:41.608Z,14.43
2022-11-04T01:29:11.600Z,9.60
2022-11-04T01:31:39.867Z,14.82
2022-11-04T01:34:08.778Z,13.77
2022-11-04T01:36:37.551Z,13.98
2022-11-04T01:39:06.257Z,14.25
2022-11-04T01:41:35.629Z,15.50
2022-11-04T01:44:06.462Z,14.63
2022-11-04T01:46:39.106Z,15.18
2022-11-04T01:49:16.987Z,13.63
2022-11-04T01:51:47.880Z,14.98
2022-11-04T01:54:16.994Z,14.60
2022-11-04T01:56:45.867Z,14.35
2022-11-04T01:59:17.953Z,14.48
2022-11-04T02:01:48.059Z,13.20
2022-11-04T02:04:30.239Z,14.13
2022-11-04T02:07:00.137Z,14.32
2022-11-04T02:09:30.585Z,14.50
2022-11-04T02:12:16.684Z,15.18
2022-11-04T02:14:46.168Z,14.18
2022-11-04T02:17:25.564Z,14.80
2022-11-04T02:20:02.698Z,13.85
2022-11-04T02:22:50.161Z,10.35
2022-11-04T02:25:33.956Z,13.18
2022-11-04T02:28:23.999Z,11.93
2022-11-04T02:30:56.363Z,13.25
2022-11-04T02:33:28.324Z,13.60
2022-11-04T02:36:03.547Z,14.57
2022-11-04T02:38:37.466Z,13.27
2022-11-04T02:41:13.837Z,13.90
2022-11-04T02:43:49.333Z,12.93
2022-11-04T02:46:23.386Z,11.55
2022-11-04T02:48:56.208Z,13.32
2022-11-04T02:51:29.788Z,14.25
2022-11-04T02:54:05.868Z,12.60
2022-11-04T02:56:37.946Z,12.52
2022-11-04T02:59:08.807Z,14.45
2022-11-04T03:01:42.140Z,13.60
2022-11-04T03:04:14.903Z,11.80
2022-11-04T03:06:45.229Z,13.63
2022-11-04T03:09:15.156Z,13.13
2022-11-04T03:11:46.169Z,12.80
2022-11-04T03:14:18.228Z,14.05
2022-11-04T03:16:49.283Z,14.10
2022-11-04T03:19:21.484Z,11.90
2022-11-04T03:21:54.935Z,13.25
2022-11-04T03:24:23.884Z,10.95
2022-11-04T03:26:56.948Z,11.65
2022-11-04T03:29:28.179Z,12.75
2022-11-04T03:32:05.100Z,12.43
2022-11-04T03:34:34.263Z,13.00
2022-11-04T03:37:03.180Z,12.50
2022-11-04T03:39:32.144Z,12.27
2022-11-04T03:42:03.398Z,11.15
2022-11-04T03:44:32.017Z,14.10
2022-11-04T03:47:02.143Z,11.70
2022-11-04T03:49:30.870Z,12.38
2022-11-04T03:51:59.648Z,11.35
2022-11-04T03:54:29.181Z,12.45
2022-11-04T03:57:11.107Z,12.83
2022-11-04T04:00:11.572Z,12.63
2022-11-04T04:05:18.667Z,10.00
2022-11-04T04:07:50.942Z,11.57
2022-11-04T04:10:41.903Z,10.73
2022-11-04T04:13:26.844Z,10.50
2022-11-04T04:15:58.372Z,10.52
2022-11-04T04:18:33.148Z,11.20
2022-11-04T04:21:04.707Z,10.07
2022-11-04T04:24:08.058Z,12.00
2022-11-04T04:26:54.836Z,9.88
2022-11-04T04:29:23.912Z,10.50
2022-11-04T04:31:57.937Z,11.70
2022-11-04T04:34:31.378Z,12.18
2022-11-04T04:37:03.577Z,9.73
2022-11-04T04:39:55.868Z,11.15
2022-11-04T04:42:42.056Z,11.15
2022-11-04T04:45:11.733Z,10.68
2022-11-04T04:47:44.330Z,9.73
2022-11-04T04:50:16.167Z,10.98
2022-11-04T04:52:47.480Z,10.95
2022-11-04T04:55:16.625Z,10.20
2022-11-04T04:57:45.569Z,10.60
2022-11-04T05:00:16.312Z,10.63
2022-11-04T05:02:45.547Z,10.80
2022-11-04T05:05:20.045Z,10.63
2022-11-04T05:07:48.735Z,10.68
2022-11-04T05:10:18.647Z,10.43
2022-11-04T05:13:04.698Z,11.30
2022-11-04T05:15:33.733Z,11.27
2022-11-04T05:18:03.417Z,9.13
2022-11-04T05:20:34.472Z,9.52
2022-11-04T05:23:03.267Z,10.93
2022-11-04T05:25:33.119Z,11.05
2022-11-04T05:28:02.590Z,8.70
2022-11-04T05:30:31.514Z,9.77
2022-11-04T05:33:03.654Z,11.32
2022-11-04T05:35:35.803Z,10.95
2022-11-04T05:40:32.656Z,10.18
2022-11-04T05:43:01.695Z,10.18
2022-11-04T05:45:30.687Z,10.77
2022-11-04T05:48:00.459Z,9.98
2022-11-04T05:50:29.567Z,10.20
2022-11-04T05:53:00.054Z,11.73
2022-11-04T05:55:28.808Z,10.38
2022-11-04T05:57:59.371Z,9.75
2022-11-04T06:00:28.696Z,10.30
2022-11-04T06:02:58.452Z,10.52
2022-11-04T06:05:27.546Z,10.63
2022-11-04T06:07:55.768Z,11.25
2022-11-04T06:10:26.046Z,9.75
2022-11-04T06:12:54.728Z,10.02
2022-11-04T06:15:23.424Z,10.25
2022-11-04T06:17:52.186Z,10.90
2022-11-04T06:20:20.866Z,9.43
2022-11-04T06:22:49.910Z,10.98
2022-11-04T06:25:18.655Z,9.90
2022-11-04T06:27:48.753Z,8.45
2022-11-04T06:30:17.614Z,10.50
2022-11-04T06:32:46.296Z,10.07
2022-11-04T06:35:15.102Z,9.25
2022-11-04T06:37:43.381Z,9.18
2022-11-04T06:40:12.713Z,10.18
2022-11-04T06:42:43.009Z,9.68
2022-11-04T06:45:13.158Z,9.45
2022-11-04T06:47:41.939Z,9.25
2022-11-04T06:50:11.065Z,9.48
2022-11-04T06:52:42.363Z,9.85
2022-11-04T06:55:11.936Z,10.00
2022-11-04T06:57:40.720Z,10.00
2022-11-04T07:00:10.543Z,9.65
2022-11-04T07:02:40.864Z,8.68
2022-11-04T07:07:38.394Z,9.20
2022-11-04T07:10:08.048Z,8.82
2022-11-04T07:12:36.728Z,10.67
2022-11-04T07:15:05.984Z,10.25
2022-11-04T07:17:34.840Z,10.48
2022-11-04T07:20:06.630Z,9.15
2022-11-04T07:22:34.934Z,10.05
2022-11-04T07:25:03.727Z,10.65
2022-11-04T07:27:32.425Z,9.32
2022-11-04T07:30:01.134Z,11.02
2022-11-04T07:32:30.211Z,9.05
2022-11-04T07:34:58.846Z,8.23
2022-11-04T07:37:28.585Z,10.85
2022-11-04T07:39:57.251Z,10.50
2022-11-04T07:42:25.855Z,9.63
2022-11-04T07:44:57.347Z,9.15
2022-11-04T07:47:25.929Z,9.55
2022-11-04T07:49:54.232Z,10.45
2022-11-04T07:52:23.025Z,10.98
2022-11-04T07:54:53.067Z,10.25
2022-11-04T07:57:22.517Z,9.32
2022-11-04T07:59:51.239Z,11.32
2022-11-04T08:02:25.799Z,13.10
2022-11-04T08:04:56.054Z,9.13
2022-11-04T08:07:24.717Z,6.95
2022-11-04T08:09:55.032Z,10.55
2022-11-04T08:12:24.537Z,8.50
2022-11-04T08:14:53.071Z,11.07
2022-11-04T08:17:21.732Z,9.77
2022-11-04T08:19:50.496Z,10.30
2022-11-04T08:22:19.378Z,10.82
2022-11-04T08:24:48.530Z,10.75
2022-11-04T08:27:18.652Z,10.07
2022-11-04T08:29:47.234Z,9.93
2022-11-04T08:32:16.022Z,10.27
2022-11-04T08:34:44.344Z,9.85
2022-11-04T08:37:15.347Z,10.90
2022-11-04T08:39:44.022Z,10.63
2022-11-04T08:42:12.667Z,11.23
2022-11-04T08:44:42.990Z,10.02
2022-11-04T08:47:11.610Z,10.40
2022-11-04T08:49:41.160Z,11.50
2022-11-04T08:52:10.228Z,10.57
2022-11-04T08:54:38.913Z,10.57
2022-11-04T08:57:08.255Z,10.85
2022-11-04T08:59:37.654Z,10.33
2022-11-04T09:02:08.215Z,11.05
2022-11-04T09:04:38.714Z,11.23
2022-11-04T09:09:37.219Z,11.82
2022-11-04T09:12:06.168Z,10.88
2022-11-04T09:14:34.887Z,11.65
2022-11-04T09:17:03.489Z,11.85
2022-11-04T09:19:33.197Z,11.35
2022-11-04T09:22:02.000Z,11.07
2022-11-04T09:24:32.020Z,11.45
2022-11-04T09:27:00.950Z,11.15
2022-11-04T09:29:33.665Z,9.43
2022-11-04T09:32:02.350Z,10.95
2022-11-04T09:34:32.391Z,11.43
2022-11-04T09:37:01.062Z,11.30
2022-11-04T09:39:29.699Z,13.23
2022-11-04T09:42:15.338Z,10.82
2022-11-04T09:45:19.625Z,11.20
2022-11-04T09:47:39.774Z,10.50
2022-11-04T09:50:12.448Z,11.57
2022-11-04T09:52:44.718Z,9.82
2022-11-04T09:55:18.111Z,10.18
2022-11-04T09:57:56.545Z,11.32
2022-11-04T10:00:26.031Z,8.40
2022-11-04T10:03:02.095Z,10.52
2022-11-04T10:05:41.735Z,11.30
2022-11-04T10:08:24.546Z,9.83
2022-11-04T10:10:57.695Z,10.50
2022-11-04T10:13:30.751Z,10.82
2022-11-04T10:16:12.860Z,10.90
2022-11-04T10:19:10.783Z,10.30
2022-11-04T10:21:47.607Z,10.57
2022-11-04T10:24:21.286Z,10.60
2022-11-04T10:27:00.405Z,9.13
2022-11-04T10:29:34.083Z,8.73
2022-11-04T10:32:06.995Z,8.77
2022-11-04T10:34:38.872Z,8.82
2022-11-04T10:37:13.185Z,9.02
2022-11-04T10:39:45.112Z,8.73
2022-11-04T10:42:16.143Z,7.85
2022-11-04T10:44:45.401Z,8.38
2022-11-04T10:47:22.191Z,9.75
2022-11-04T10:50:27.298Z,8.93
2022-11-04T10:52:47.802Z,9.05
2022-11-04T10:55:27.070Z,9.45
2022-11-04T10:57:56.956Z,9.88
2022-11-04T11:00:37.092Z,9.43
2022-11-04T11:03:24.626Z,8.68
2022-11-04T11:05:53.841Z,9.45
2022-11-04T11:08:31.949Z,7.95
2022-11-04T11:11:00.442Z,8.90
2022-11-04T11:13:35.749Z,8.70
2022-11-04T11:16:11.858Z,8.40
2022-11-04T11:18:42.122Z,8.18
2022-11-04T11:26:18.726Z,9.02
2022-11-04T11:28:55.795Z,9.05
2022-11-04T11:31:27.655Z,9.27
2022-11-04T11:33:58.069Z,9.43
2022-11-04T11:36:28.028Z,8.10
2022-11-04T11:39:05.832Z,8.63
2022-11-04T11:41:40.973Z,9.20
2022-11-04T11:44:20.946Z,8.27
2022-11-04T11:46:54.640Z,9.70
2022-11-04T11:49:28.499Z,8.93
2022-11-04T11:51:57.506Z,9.15
2022-11-04T11:54:33.954Z,8.35
2022-11-04T11:57:15.151Z,8.90
2022-11-04T12:02:49.118Z,7.65
2022-11-04T12:11:17.723Z,8.55
2022-11-04T12:13:50.605Z,8.65
2022-11-04T12:16:28.776Z,9.57
2022-11-04T12:19:31.284Z,7.72
2022-11-04T12:22:03.514Z,9.98
2022-11-04T12:24:39.526Z,8.48
2022-11-04T12:27:16.510Z,8.77
2022-11-04T12:30:00.439Z,9.02
2022-11-04T12:32:37.667Z,8.95
2022-11-04T12:35:18.606Z,10.23
2022-11-04T12:37:54.466Z,10.88
2022-11-04T12:40:26.705Z,8.25
2022-11-04T12:43:07.094Z,8.95
2022-11-04T12:45:44.799Z,9.88
2022-11-04T12:48:28.482Z,9.00
2022-11-04T12:51:03.079Z,9.68
2022-11-04T12:53:43.696Z,8.95
2022-11-04T12:56:13.484Z,9.63
2022-11-04T12:59:02.346Z,9.35
2022-11-04T13:01:34.803Z,8.73
2022-11-04T13:04:07.869Z,9.05
2022-11-04T13:06:41.259Z,8.68
2022-11-04T13:09:13.658Z,8.88
2022-11-04T13:11:46.864Z,8.23
2022-11-04T13:14:23.984Z,9.02
2022-11-04T13:16:53.066Z,9.25
2022-11-04T13:19:28.708Z,8.75
2022-11-04T13:21:58.570Z,8.57
2022-11-04T13:24:31.878Z,7.90
2022-11-04T13:27:04.648Z,10.25
2022-11-04T13:29:37.076Z,8.40
2022-11-04T13:32:12.297Z,9.80
2022-11-04T13:34:48.898Z,8.75
2022-11-04T13:37:22.572Z,8.98
2022-11-04T13:39:54.937Z,9.10
2022-11-04T13:42:44.204Z,8.45
2022-11-04T13:45:16.406Z,7.90
2022-11-04T13:47:48.866Z,9.35
2022-11-04T13:50:35.517Z,9.57
2022-11-04T13:53:04.925Z,9.30
2022-11-04T13:55:35.968Z,9.20
2022-11-04T13:58:06.676Z,9.90
2022-11-04T14:00:37.662Z,8.90
2022-11-04T14:03:40.322Z,9.40
2022-11-04T14:06:10.855Z,9.30
2022-11-04T14:09:14.373Z,9.60
2022-11-04T14:12:24.660Z,7.90
2022-11-04T14:14:56.060Z,9.23
2022-11-04T14:18:02.280Z,8.32
2022-11-04T14:20:33.446Z,8.95
2022-11-04T14:23:03.729Z,8.45
2022-11-04T14:25:38.005Z,9.35
2022-11-04T14:28:27.520Z,10.43
2022-11-04T14:30:58.944Z,9.65
2022-11-04T14:33:35.460Z,8.98
2022-11-04T14:36:26.848Z,9.00
2022-11-04T14:41:34.398Z,9.45
2022-11-04T14:44:04.511Z,9.20
2022-11-04T14:46:42.112Z,8.98
2022-11-04T14:49:32.949Z,8.65
2022-11-04T14:52:01.541Z,9.00
2022-11-04T14:54:32.723Z,9.27
2022-11-04T14:57:11.156Z,9.63
2022-11-04T14:59:39.851Z,10.52
2022-11-04T15:02:16.547Z,9.98
2022-11-04T15:04:58.120Z,10.57
2022-11-04T15:07:37.418Z,9.73
2022-11-04T15:10:21.089Z,9.60
2022-11-04T15:12:52.544Z,10.40
2022-11-04T15:15:32.881Z,9.75
2022-11-04T15:18:05.260Z,10.10
2022-11-04T15:20:46.639Z,10.18
2022-11-04T15:23:18.281Z,10.68
2022-11-04T15:25:48.647Z,10.85
2022-11-04T15:28:22.701Z,10.60
2022-11-04T15:31:06.112Z,9.65
2022-11-04T15:33:41.047Z,10.88
2022-11-04T15:36:12.027Z,11.13
2022-11-04T15:38:43.106Z,10.57
2022-11-04T15:41:33.159Z,11.23
2022-11-04T15:44:04.119Z,9.90
2022-11-04T15:46:32.885Z,11.82
2022-11-04T15:49:05.721Z,10.30
2022-11-04T15:51:39.333Z,10.32
2022-11-04T15:54:16.509Z,11.40
2022-11-04T15:56:50.132Z,10.65
2022-11-04T15:59:21.221Z,11.30
2022-11-04T16:01:50.954Z,11.30
2022-11-04T16:04:23.019Z,12.68
2022-11-04T16:07:06.590Z,12.18
2022-11-04T16:09:47.357Z,12.05
2022-11-04T16:12:18.552Z,11.13
2022-11-04T16:14:52.276Z,13.05
2022-11-04T16:17:21.325Z,11.73
2022-11-04T16:19:53.001Z,11.50
2022-11-04T16:22:26.794Z,13.80
2022-11-04T16:24:56.077Z,12.40
2022-11-04T16:27:24.968Z,11.82
2022-11-04T16:30:03.420Z,12.73
2022-11-04T16:32:40.576Z,13.82
2022-11-04T16:35:16.442Z,13.52
2022-11-04T16:37:44.707Z,13.43
2022-11-04T16:40:14.007Z,14.15
2022-11-04T16:42:42.796Z,12.98
2022-11-04T16:45:19.374Z,12.95
2022-11-04T16:47:48.038Z,13.25
2022-11-04T16:50:19.168Z,13.75
2022-11-04T16:52:47.754Z,14.20
2022-11-04T16:55:16.830Z,14.32
2022-11-04T16:57:46.190Z,14.70
2022-11-04T17:00:21.076Z,13.32
2022-11-04T17:02:50.386Z,13.50
2022-11-04T17:05:21.319Z,13.88
2022-11-04T17:07:58.853Z,13.55
2022-11-04T17:10:35.893Z,13.73
2022-11-04T17:13:04.691Z,13.38
2022-11-04T17:15:33.560Z,13.35
2022-11-04T17:18:02.253Z,13.85
2022-11-04T17:20:33.003Z,13.40
2022-11-04T17:23:02.335Z,13.57
2022-11-04T17:25:31.648Z,14.10
2022-11-04T17:28:00.320Z,15.50
2022-11-04T17:30:29.060Z,12.95
2022-11-04T17:32:58.246Z,14.20
2022-11-04T17:35:27.154Z,14.18
2022-11-04T17:37:56.963Z,13.25
2022-11-04T17:40:25.916Z,14.35
2022-11-04T17:43:23.478Z,14.15
2022-11-04T17:46:13.247Z,14.32
2022-11-04T17:48:41.999Z,15.45
2022-11-04T17:51:11.017Z,15.93
2022-11-04T17:53:41.205Z,14.20
2022-11-04T17:56:15.333Z,15.23
2022-11-04T17:58:43.776Z,14.25
2022-11-04T18:01:13.772Z,15.88
2022-11-04T18:03:43.214Z,15.30
2022-11-04T18:06:12.118Z,15.93
2022-11-04T18:08:42.280Z,15.82
2022-11-04T18:11:12.734Z,15.25
2022-11-04T18:13:40.075Z,15.48
2022-11-04T18:16:11.972Z,16.60
2022-11-04T18:18:40.820Z,14.55
2022-11-04T18:21:11.062Z,15.73
2022-11-04T18:23:41.175Z,15.07
2022-11-04T18:26:10.269Z,16.63
2022-11-04T18:28:38.900Z,16.67
2022-11-04T18:31:09.704Z,16.00
2022-11-04T18:33:42.633Z,15.52
2022-11-04T18:36:11.752Z,16.20
2022-11-04T18:38:41.806Z,17.33
2022-11-04T18:41:10.595Z,17.38
2022-11-04T18:43:38.927Z,16.42
2022-11-04T18:46:09.697Z,16.80
2022-11-04T18:48:38.703Z,15.40
2022-11-04T18:51:09.643Z,15.90
2022-11-04T18:53:38.710Z,16.90
2022-11-04T18:56:10.779Z,16.92
2022-11-04T18:58:40.345Z,17.23
2022-11-04T19:01:11.023Z,18.42
2022-11-04T19:03:40.187Z,17.17
2022-11-04T19:06:10.269Z,17.23
2022-11-04T19:08:45.304Z,18.52
2022-11-04T19:11:19.694Z,17.75
2022-11-04T19:13:51.687Z,17.63
2022-11-04T19:16:20.440Z,16.83
2022-11-04T19:18:49.607Z,17.63
2022-11-04T19:21:19.910Z,17.30
2022-11-04T19:23:48.629Z,18.23
2022-11-04T19:26:20.640Z,16.83
2022-11-04T19:28:50.081Z,19.20
2022-11-04T19:31:21.029Z,15.77
2022-11-04T19:33:50.113Z,16.63
2022-11-04T19:36:21.112Z,16.98
2022-11-04T19:38:52.634Z,17.77
2022-11-04T19:41:41.680Z,17.23
2022-11-04T19:44:12.261Z,17.60
2022-11-04T19:46:41.616Z,16.83
2022-11-04T19:49:12.522Z,17.07
2022-11-04T19:51:41.807Z,17.75
2022-11-04T19:54:11.259Z,15.77
2022-11-04T19:56:42.691Z,16.25
2022-11-04T19:59:12.489Z,16.38
2022-11-04T20:01:41.066Z,16.20
2022-11-04T20:04:10.713Z,17.65
2022-11-04T20:06:39.722Z,15.20
2022-11-04T20:09:11.081Z,16.55
2022-11-04T20:11:56.062Z,18.75
2022-11-04T20:14:24.784Z,15.90
2022-11-04T20:16:53.164Z,14.93
2022-11-04T20:19:23.094Z,15.38
2022-11-04T20:21:52.437Z,15.43
2022-11-04T20:24:21.106Z,16.05
2022-11-04T20:26:51.135Z,15.07
2022-11-04T20:29:19.990Z,15.25
2022-11-04T20:31:48.418Z,15.52
2022-11-04T20:34:17.062Z,14.82
2022-11-04T20:36:45.834Z,15.38
2022-11-04T20:39:16.797Z,14.88
2022-11-04T20:41:45.924Z,15.55
2022-11-04T20:44:16.668Z,15.13
2022-11-04T20:49:14.153Z,15.18
2022-11-04T20:51:54.512Z,15.90
2022-11-04T20:54:24.140Z,15.73
2022-11-04T20:56:52.733Z,15.00
2022-11-04T20:59:22.776Z,14.55
2022-11-04T21:01:51.220Z,15.10
2022-11-04T21:04:21.482Z,14.57
2022-11-04T21:06:51.468Z,15.25
2022-11-04T21:09:21.858Z,14.73
2022-11-04T21:11:51.411Z,15.25
2022-11-04T21:14:20.430Z,14.00
2022-11-04T21:16:50.146Z,14.00
2022-11-04T21:19:22.000Z,13.85
2022-11-04T21:21:51.442Z,14.70
2022-11-04T21:24:20.099Z,13.80
2022-11-04T21:26:49.094Z,14.02
2022-11-04T21:29:19.462Z,13.90
2022-11-04T21:31:49.848Z,14.88
2022-11-04T21:34:18.536Z,14.13
2022-11-04T21:36:47.215Z,15.13
2022-11-04T21:39:15.974Z,14.45
2022-11-04T21:41:44.756Z,13.63
2022-11-04T21:44:14.440Z,14.50
2022-11-04T21:46:43.405Z,12.82
2022-11-04T21:49:16.649Z,14.40
2022-11-04T21:51:45.226Z,15.20
2022-11-04T21:54:13.786Z,15.10
2022-11-04T21:56:42.582Z,14.98
2022-11-04T21:59:17.976Z,13.93
2022-11-04T22:01:46.874Z,16.63
2022-11-04T22:04:17.127Z,13.73
2022-11-04T22:06:47.179Z,15.93
2022-11-04T22:09:15.772Z,14.18
2022-11-04T22:11:44.543Z,15.35
2022-11-04T22:14:13.624Z,15.50
2022-11-04T22:16:41.967Z,15.02
2022-11-04T22:19:13.589Z,14.95
2022-11-04T22:21:45.473Z,14.90
2022-11-04T22:24:16.053Z,14.65
2022-11-04T22:26:44.720Z,15.07
2022-11-04T22:29:13.362Z,15.98
2022-11-04T22:31:43.114Z,15.65
2022-11-04T22:34:12.223Z,16.80
2022-11-04T22:36:41.132Z,14.43
2022-11-04T22:39:16.865Z,14.45
2022-11-04T22:41:47.196Z,16.23
2022-11-04T22:44:16.196Z,13.90
2022-11-04T22:46:44.780Z,14.73
2022-11-04T22:49:14.608Z,15.35
2022-11-04T22:51:43.373Z,15.38
2022-11-04T22:54:13.405Z,11.90
2022-11-04T22:56:42.162Z,15.95
2022-11-04T22:59:11.353Z,14.18
2022-11-04T23:01:39.707Z,14.98
2022-11-04T23:04:11.912Z,17.35
2022-11-04T23:06:40.973Z,15.95
2022-11-04T23:09:09.802Z,16.70
2022-11-04T23:11:57.356Z,16.38
2022-11-04T23:14:43.316Z,15.38
2022-11-04T23:17:34.431Z,14.80
2022-11-04T23:20:03.768Z,16.05
2022-11-04T23:22:49.573Z,16.40
2022-11-04T23:25:18.972Z,16.50
2022-11-04T23:28:07.712Z,15.23
2022-11-04T23:30:38.868Z,15.93
2022-11-04T23:33:09.058Z,16.08
2022-11-04T23:38:24.690Z,15.18
2022-11-04T23:41:21.314Z,15.50
2022-11-04T23:43:51.365Z,16.63
2022-11-04T23:46:42.638Z,16.30
2022-11-04T23:49:29.907Z,15.43
2022-11-04T23:52:15.950Z,12.55
2022-11-04T23:55:02.067Z,17.10
2022-11-04T23:57:48.337Z,16.90
